sensor_id;sensor_type;location;lat;lon;timestamp;temperature;humidity
14531;DHT22;7352;50.866;4.366;2023-07-31T00:01:34;18.80;99.90
14531;DHT22;7352;50.866;4.366;2023-07-31T00:04:01;18.80;99.90
14531;DHT22;7352;50.866;4.366;2023-07-31T00:06:28;19.00;99.90
14531;DHT22;7352;50.866;4.366;2023-07-31T00:08:56;19.00;99.90
14531;DHT22;7352;50.866;4.366;2023-07-31T00:11:23;19.00;99.90
14531;DHT22;7352;50.866;4.366;2023-07-31T00:13:50;18.90;99.90
14531;DHT22;7352;50.866;4.366;2023-07-31T00:16:17;18.90;99.90
14531;DHT22;7352;50.866;4.366;2023-07-31T00:18:44;18.90;99.90
14531;DHT22;7352;50.866;4.366;2023-07-31T00:21:11;18.90;99.90
14531;DHT22;7352;50.866;4.366;2023-07-31T00:23:38;18.90;99.90
14531;DHT22;7352;50.866;4.366;2023-07-31T00:26:06;18.90;99.90
14531;DHT22;7352;50.866;4.366;2023-07-31T00:28:33;19.00;99.90
14531;DHT22;7352;50.866;4.366;2023-07-31T00:31:00;19.00;99.90
14531;DHT22;7352;50.866;4.366;2023-07-31T00:33:30;19.10;99.90
14531;DHT22;7352;50.866;4.366;2023-07-31T00:35:57;19.00;99.90
14531;DHT22;7352;50.866;4.366;2023-07-31T00:38:25;19.00;99.90
14531;DHT22;7352;50.866;4.366;2023-07-31T00:40:52;18.80;99.90
14531;DHT22;7352;50.866;4.366;2023-07-31T00:43:20;18.90;99.90
14531;DHT22;7352;50.866;4.366;2023-07-31T00:45:47;19.00;99.90
14531;DHT22;7352;50.866;4.366;2023-07-31T00:48:14;19.00;99.90
14531;DHT22;7352;50.866;4.366;2023-07-31T00:50:41;19.00;99.90
14531;DHT22;7352;50.866;4.366;2023-07-31T00:53:09;18.90;99.90
14531;DHT22;7352;50.866;4.366;2023-07-31T00:55:37;19.00;99.90
14531;DHT22;7352;50.866;4.366;2023-07-31T00:58:04;19.10;99.90
14531;DHT22;7352;50.866;4.366;2023-07-31T01:00:32;19.00;99.90
14531;DHT22;7352;50.866;4.366;2023-07-31T01:02:59;19.00;99.90
14531;DHT22;7352;50.866;4.366;2023-07-31T01:05:33;19.00;99.90
14531;DHT22;7352;50.866;4.366;2023-07-31T01:08:07;19.00;99.90
14531;DHT22;7352;50.866;4.366;2023-07-31T01:10:41;19.00;99.90
14531;DHT22;7352;50.866;4.366;2023-07-31T01:13:11;18.90;99.90
14531;DHT22;7352;50.866;4.366;2023-07-31T01:15:40;18.90;99.90
14531;DHT22;7352;50.866;4.366;2023-07-31T01:18:07;18.80;99.90
14531;DHT22;7352;50.866;4.366;2023-07-31T01:20:35;18.80;99.90
14531;DHT22;7352;50.866;4.366;2023-07-31T01:23:26;18.80;99.90
14531;DHT22;7352;50.866;4.366;2023-07-31T01:26:10;18.80;99.90
14531;DHT22;7352;50.866;4.366;2023-07-31T01:28:46;18.80;99.90
14531;DHT22;7352;50.866;4.366;2023-07-31T01:31:18;18.90;99.90
14531;DHT22;7352;50.866;4.366;2023-07-31T01:33:47;18.90;99.90
14531;DHT22;7352;50.866;4.366;2023-07-31T01:36:15;19.00;99.90
14531;DHT22;7352;50.866;4.366;2023-07-31T01:38:42;19.10;99.90
14531;DHT22;7352;50.866;4.366;2023-07-31T01:41:10;19.10;99.90
14531;DHT22;7352;50.866;4.366;2023-07-31T01:43:37;19.20;99.90
14531;DHT22;7352;50.866;4.366;2023-07-31T01:46:04;19.10;99.90
14531;DHT22;7352;50.866;4.366;2023-07-31T01:48:32;19.00;99.90
14531;DHT22;7352;50.866;4.366;2023-07-31T01:51:02;18.90;99.90
14531;DHT22;7352;50.866;4.366;2023-07-31T01:53:32;18.90;99.90
14531;DHT22;7352;50.866;4.366;2023-07-31T01:55:59;19.00;99.90
14531;DHT22;7352;50.866;4.366;2023-07-31T01:58:28;18.90;99.90
14531;DHT22;7352;50.866;4.366;2023-07-31T02:00:55;19.00;99.90
14531;DHT22;7352;50.866;4.366;2023-07-31T02:03:23;19.10;99.90
14531;DHT22;7352;50.866;4.366;2023-07-31T02:05:50;19.00;99.90
14531;DHT22;7352;50.866;4.366;2023-07-31T02:08:18;19.10;99.90
14531;DHT22;7352;50.866;4.366;2023-07-31T02:10:45;19.10;99.90
14531;DHT22;7352;50.866;4.366;2023-07-31T02:13:12;19.20;99.90
14531;DHT22;7352;50.866;4.366;2023-07-31T02:15:41;19.20;99.90
14531;DHT22;7352;50.866;4.366;2023-07-31T02:18:08;19.20;99.90
14531;DHT22;7352;50.866;4.366;2023-07-31T02:20:35;19.30;99.90
14531;DHT22;7352;50.866;4.366;2023-07-31T02:23:02;19.10;99.90
14531;DHT22;7352;50.866;4.366;2023-07-31T02:25:29;19.20;99.90
14531;DHT22;7352;50.866;4.366;2023-07-31T02:27:58;19.20;99.90
14531;DHT22;7352;50.866;4.366;2023-07-31T02:30:25;19.10;99.90
14531;DHT22;7352;50.866;4.366;2023-07-31T02:32:53;19.10;99.90
14531;DHT22;7352;50.866;4.366;2023-07-31T02:35:20;19.10;99.90
14531;DHT22;7352;50.866;4.366;2023-07-31T02:37:47;19.10;99.90
14531;DHT22;7352;50.866;4.366;2023-07-31T02:40:14;19.20;99.90
14531;DHT22;7352;50.866;4.366;2023-07-31T02:42:41;19.20;99.90
14531;DHT22;7352;50.866;4.366;2023-07-31T02:45:09;19.30;99.90
14531;DHT22;7352;50.866;4.366;2023-07-31T02:47:36;19.20;99.90
14531;DHT22;7352;50.866;4.366;2023-07-31T02:50:05;19.20;99.90
14531;DHT22;7352;50.866;4.366;2023-07-31T02:52:33;19.10;99.90
14531;DHT22;7352;50.866;4.366;2023-07-31T02:55:00;19.20;99.90
14531;DHT22;7352;50.866;4.366;2023-07-31T02:57:27;19.30;99.90
14531;DHT22;7352;50.866;4.366;2023-07-31T02:59:57;19.30;99.90
14531;DHT22;7352;50.866;4.366;2023-07-31T03:02:31;19.20;99.90
14531;DHT22;7352;50.866;4.366;2023-07-31T03:05:01;19.40;99.90
14531;DHT22;7352;50.866;4.366;2023-07-31T03:07:31;19.40;99.90
14531;DHT22;7352;50.866;4.366;2023-07-31T03:09:59;19.30;99.90
14531;DHT22;7352;50.866;4.366;2023-07-31T03:12:28;19.20;99.90
14531;DHT22;7352;50.866;4.366;2023-07-31T03:14:55;19.30;99.90
14531;DHT22;7352;50.866;4.366;2023-07-31T03:17:30;19.20;99.90
14531;DHT22;7352;50.866;4.366;2023-07-31T03:19:57;19.20;99.90
14531;DHT22;7352;50.866;4.366;2023-07-31T03:22:26;19.20;99.90
14531;DHT22;7352;50.866;4.366;2023-07-31T03:24:55;19.20;99.90
14531;DHT22;7352;50.866;4.366;2023-07-31T03:27:23;19.20;99.90
14531;DHT22;7352;50.866;4.366;2023-07-31T03:29:50;19.20;99.90
14531;DHT22;7352;50.866;4.366;2023-07-31T03:32:17;19.10;99.90
14531;DHT22;7352;50.866;4.366;2023-07-31T03:34:44;19.10;99.90
14531;DHT22;7352;50.866;4.366;2023-07-31T03:37:11;19.00;99.90
14531;DHT22;7352;50.866;4.366;2023-07-31T03:39:39;19.00;99.90
14531;DHT22;7352;50.866;4.366;2023-07-31T03:42:07;18.90;99.90
14531;DHT22;7352;50.866;4.366;2023-07-31T03:44:35;18.90;99.90
14531;DHT22;7352;50.866;4.366;2023-07-31T03:47:02;18.80;99.90
14531;DHT22;7352;50.866;4.366;2023-07-31T03:49:32;18.80;99.90
14531;DHT22;7352;50.866;4.366;2023-07-31T03:52:01;18.90;99.90
14531;DHT22;7352;50.866;4.366;2023-07-31T03:54:32;18.80;99.90
14531;DHT22;7352;50.866;4.366;2023-07-31T03:56:59;18.90;99.90
14531;DHT22;7352;50.866;4.366;2023-07-31T03:59:27;18.90;99.90
14531;DHT22;7352;50.866;4.366;2023-07-31T04:01:56;18.90;99.90
14531;DHT22;7352;50.866;4.366;2023-07-31T04:04:23;19.00;99.90
14531;DHT22;7352;50.866;4.366;2023-07-31T04:06:50;18.80;99.90
14531;DHT22;7352;50.866;4.366;2023-07-31T04:09:17;18.80;99.90
14531;DHT22;7352;50.866;4.366;2023-07-31T04:11:44;18.80;99.90
14531;DHT22;7352;50.866;4.366;2023-07-31T04:14:11;19.00;99.90
14531;DHT22;7352;50.866;4.366;2023-07-31T04:16:39;18.90;99.90
14531;DHT22;7352;50.866;4.366;2023-07-31T04:19:06;18.90;99.90
14531;DHT22;7352;50.866;4.366;2023-07-31T04:21:33;18.80;99.90
14531;DHT22;7352;50.866;4.366;2023-07-31T04:24:00;18.70;99.90
14531;DHT22;7352;50.866;4.366;2023-07-31T04:26:27;18.70;99.90
14531;DHT22;7352;50.866;4.366;2023-07-31T04:28:54;18.70;99.90
14531;DHT22;7352;50.866;4.366;2023-07-31T04:31:22;18.70;99.90
14531;DHT22;7352;50.866;4.366;2023-07-31T04:33:51;18.90;99.90
14531;DHT22;7352;50.866;4.366;2023-07-31T04:36:18;18.90;99.90
14531;DHT22;7352;50.866;4.366;2023-07-31T04:38:45;18.80;99.90
14531;DHT22;7352;50.866;4.366;2023-07-31T04:41:12;18.90;99.90
14531;DHT22;7352;50.866;4.366;2023-07-31T04:43:39;18.90;99.90
14531;DHT22;7352;50.866;4.366;2023-07-31T04:46:07;18.80;99.90
14531;DHT22;7352;50.866;4.366;2023-07-31T04:48:34;18.90;99.90
14531;DHT22;7352;50.866;4.366;2023-07-31T04:51:04;18.80;99.90
14531;DHT22;7352;50.866;4.366;2023-07-31T04:53:32;18.80;99.90
14531;DHT22;7352;50.866;4.366;2023-07-31T04:55:59;18.80;99.90
14531;DHT22;7352;50.866;4.366;2023-07-31T04:58:26;18.80;99.90
14531;DHT22;7352;50.866;4.366;2023-07-31T05:00:53;18.80;99.90
14531;DHT22;7352;50.866;4.366;2023-07-31T05:03:20;18.60;99.90
14531;DHT22;7352;50.866;4.366;2023-07-31T05:05:49;18.60;99.90
14531;DHT22;7352;50.866;4.366;2023-07-31T05:08:18;18.70;99.90
14531;DHT22;7352;50.866;4.366;2023-07-31T05:10:46;18.60;99.90
14531;DHT22;7352;50.866;4.366;2023-07-31T05:13:15;18.60;99.90
14531;DHT22;7352;50.866;4.366;2023-07-31T05:15:44;18.50;99.90
14531;DHT22;7352;50.866;4.366;2023-07-31T05:18:13;18.60;99.90
14531;DHT22;7352;50.866;4.366;2023-07-31T05:20:42;18.50;99.90
14531;DHT22;7352;50.866;4.366;2023-07-31T05:23:09;18.50;99.90
14531;DHT22;7352;50.866;4.366;2023-07-31T05:25:37;18.60;99.90
14531;DHT22;7352;50.866;4.366;2023-07-31T05:28:04;18.50;99.90
14531;DHT22;7352;50.866;4.366;2023-07-31T05:30:31;18.30;99.90
14531;DHT22;7352;50.866;4.366;2023-07-31T05:33:02;18.30;99.90
14531;DHT22;7352;50.866;4.366;2023-07-31T05:35:31;18.30;99.90
14531;DHT22;7352;50.866;4.366;2023-07-31T05:37:58;18.20;99.90
14531;DHT22;7352;50.866;4.366;2023-07-31T05:40:26;18.30;99.90
14531;DHT22;7352;50.866;4.366;2023-07-31T05:42:55;18.30;99.90
14531;DHT22;7352;50.866;4.366;2023-07-31T05:45:22;18.30;99.90
14531;DHT22;7352;50.866;4.366;2023-07-31T05:47:49;18.30;99.90
14531;DHT22;7352;50.866;4.366;2023-07-31T05:50:16;18.30;99.90
14531;DHT22;7352;50.866;4.366;2023-07-31T05:52:44;18.30;99.90
14531;DHT22;7352;50.866;4.366;2023-07-31T05:55:12;18.30;99.90
14531;DHT22;7352;50.866;4.366;2023-07-31T05:57:39;18.30;99.90
14531;DHT22;7352;50.866;4.366;2023-07-31T06:00:09;18.30;99.90
14531;DHT22;7352;50.866;4.366;2023-07-31T06:02:38;18.30;99.90
14531;DHT22;7352;50.866;4.366;2023-07-31T06:05:06;18.30;99.90
14531;DHT22;7352;50.866;4.366;2023-07-31T06:07:33;18.40;99.90
14531;DHT22;7352;50.866;4.366;2023-07-31T06:10:01;18.50;99.90
14531;DHT22;7352;50.866;4.366;2023-07-31T06:12:30;18.50;99.90
14531;DHT22;7352;50.866;4.366;2023-07-31T06:14:59;18.50;99.90
14531;DHT22;7352;50.866;4.366;2023-07-31T06:17:27;18.50;99.90
14531;DHT22;7352;50.866;4.366;2023-07-31T06:19:54;18.60;99.90
14531;DHT22;7352;50.866;4.366;2023-07-31T06:22:21;18.50;99.90
14531;DHT22;7352;50.866;4.366;2023-07-31T06:24:48;18.50;99.90
14531;DHT22;7352;50.866;4.366;2023-07-31T06:27:15;18.60;99.90
14531;DHT22;7352;50.866;4.366;2023-07-31T06:29:42;18.60;99.90
14531;DHT22;7352;50.866;4.366;2023-07-31T06:32:10;18.60;99.90
14531;DHT22;7352;50.866;4.366;2023-07-31T06:34:39;18.60;99.90
14531;DHT22;7352;50.866;4.366;2023-07-31T06:37:06;18.70;99.90
14531;DHT22;7352;50.866;4.366;2023-07-31T06:39:33;18.70;99.90
14531;DHT22;7352;50.866;4.366;2023-07-31T06:42:00;18.80;99.90
14531;DHT22;7352;50.866;4.366;2023-07-31T06:44:27;18.70;99.90
14531;DHT22;7352;50.866;4.366;2023-07-31T06:46:54;18.80;99.90
14531;DHT22;7352;50.866;4.366;2023-07-31T06:49:21;18.80;99.90
14531;DHT22;7352;50.866;4.366;2023-07-31T06:51:49;19.00;99.90
14531;DHT22;7352;50.866;4.366;2023-07-31T06:54:16;19.10;99.90
14531;DHT22;7352;50.866;4.366;2023-07-31T06:56:43;19.10;99.90
14531;DHT22;7352;50.866;4.366;2023-07-31T06:59:10;19.20;99.90
14531;DHT22;7352;50.866;4.366;2023-07-31T07:01:37;19.30;99.90
14531;DHT22;7352;50.866;4.366;2023-07-31T07:04:04;19.40;99.90
14531;DHT22;7352;50.866;4.366;2023-07-31T07:06:31;19.40;99.90
14531;DHT22;7352;50.866;4.366;2023-07-31T07:08:59;19.40;99.90
14531;DHT22;7352;50.866;4.366;2023-07-31T07:11:26;19.50;99.90
14531;DHT22;7352;50.866;4.366;2023-07-31T07:13:53;19.60;99.90
14531;DHT22;7352;50.866;4.366;2023-07-31T07:16:20;19.70;99.90
14531;DHT22;7352;50.866;4.366;2023-07-31T07:18:47;19.70;99.90
14531;DHT22;7352;50.866;4.366;2023-07-31T07:21:14;19.80;99.90
14531;DHT22;7352;50.866;4.366;2023-07-31T07:23:43;19.80;99.90
14531;DHT22;7352;50.866;4.366;2023-07-31T07:26:12;19.80;99.90
14531;DHT22;7352;50.866;4.366;2023-07-31T08:23:10;19.90;99.90
14531;DHT22;7352;50.866;4.366;2023-07-31T08:33:02;19.90;99.90
14531;DHT22;7352;50.866;4.366;2023-07-31T09:21:58;20.30;99.90
14531;DHT22;7352;50.866;4.366;2023-07-31T09:26:02;20.20;99.90
14531;DHT22;7352;50.866;4.366;2023-07-31T09:37:10;21.00;99.90
14531;DHT22;7352;50.866;4.366;2023-07-31T09:53:29;20.60;99.90
14531;DHT22;7352;50.866;4.366;2023-07-31T09:56:29;20.80;99.90
14531;DHT22;7352;50.866;4.366;2023-07-31T09:59:07;20.80;99.90
14531;DHT22;7352;50.866;4.366;2023-07-31T10:05:03;20.70;99.90
14531;DHT22;7352;50.866;4.366;2023-07-31T10:07:45;20.50;99.90
14531;DHT22;7352;50.866;4.366;2023-07-31T10:10:27;20.60;99.90
14531;DHT22;7352;50.866;4.366;2023-07-31T10:12:55;20.30;99.90
14531;DHT22;7352;50.866;4.366;2023-07-31T10:15:27;20.40;99.90
14531;DHT22;7352;50.866;4.366;2023-07-31T10:18:11;20.30;99.90
14531;DHT22;7352;50.866;4.366;2023-07-31T10:20:56;20.20;99.90
14531;DHT22;7352;50.866;4.366;2023-07-31T10:26:58;20.70;99.90
14531;DHT22;7352;50.866;4.366;2023-07-31T10:29:30;20.80;99.90
14531;DHT22;7352;50.866;4.366;2023-07-31T10:32:06;20.70;99.90
14531;DHT22;7352;50.866;4.366;2023-07-31T10:34:49;20.60;99.90
14531;DHT22;7352;50.866;4.366;2023-07-31T10:37:21;20.70;99.90
14531;DHT22;7352;50.866;4.366;2023-07-31T10:39:57;21.00;99.90
14531;DHT22;7352;50.866;4.366;2023-07-31T10:42:35;20.90;99.90
14531;DHT22;7352;50.866;4.366;2023-07-31T10:45:13;20.80;99.90
14531;DHT22;7352;50.866;4.366;2023-07-31T10:48:20;21.00;99.90
14531;DHT22;7352;50.866;4.366;2023-07-31T10:50:54;21.20;99.90
14531;DHT22;7352;50.866;4.366;2023-07-31T10:53:28;21.30;99.90
14531;DHT22;7352;50.866;4.366;2023-07-31T10:59:13;21.40;99.90
14531;DHT22;7352;50.866;4.366;2023-07-31T11:04:31;21.90;99.90
14531;DHT22;7352;50.866;4.366;2023-07-31T11:07:25;21.80;99.90
14531;DHT22;7352;50.866;4.366;2023-07-31T11:18:54;22.10;99.90
14531;DHT22;7352;50.866;4.366;2023-07-31T11:21:40;22.10;99.90
14531;DHT22;7352;50.866;4.366;2023-07-31T11:24:14;22.30;99.90
14531;DHT22;7352;50.866;4.366;2023-07-31T11:26:55;22.40;99.90
14531;DHT22;7352;50.866;4.366;2023-07-31T11:29:32;22.30;99.90
14531;DHT22;7352;50.866;4.366;2023-07-31T11:32:24;22.20;99.90
14531;DHT22;7352;50.866;4.366;2023-07-31T11:34:57;22.20;99.90
14531;DHT22;7352;50.866;4.366;2023-07-31T11:37:41;22.10;99.90
14531;DHT22;7352;50.866;4.366;2023-07-31T11:40:48;22.20;99.90
14531;DHT22;7352;50.866;4.366;2023-07-31T11:43:31;22.10;99.90
14531;DHT22;7352;50.866;4.366;2023-07-31T11:46:09;22.10;99.90
14531;DHT22;7352;50.866;4.366;2023-07-31T11:48:37;21.90;99.90
14531;DHT22;7352;50.866;4.366;2023-07-31T11:51:10;21.90;99.90
14531;DHT22;7352;50.866;4.366;2023-07-31T11:54:13;21.70;99.90
14531;DHT22;7352;50.866;4.366;2023-07-31T11:56:56;21.60;99.90
14531;DHT22;7352;50.866;4.366;2023-07-31T11:59:50;21.60;99.90
14531;DHT22;7352;50.866;4.366;2023-07-31T12:02:38;21.50;99.90
14531;DHT22;7352;50.866;4.366;2023-07-31T12:05:56;21.70;99.90
14531;DHT22;7352;50.866;4.366;2023-07-31T12:22:42;22.10;99.90
14531;DHT22;7352;50.866;4.366;2023-07-31T12:26:34;22.10;99.90
14531;DHT22;7352;50.866;4.366;2023-07-31T21:24:14;19.60;99.90
